sensor_id;sensor_type;location;lat;lon;timestamp;pressure;altitude;pressure_sealevel;temperature;humidity
31911;BME280;18457;52.432;16.914;2023-03-19T00:00:53;100421.33;;;8.80;63.47
31911;BME280;18457;52.432;16.914;2023-03-19T00:03:44;100425.89;;;8.76;64.38
31911;BME280;18457;52.432;16.914;2023-03-19T00:06:17;100426.95;;;8.78;62.91
31911;BME280;18457;52.432;16.914;2023-03-19T00:08:49;100427.27;;;8.80;62.75
31911;BME280;18457;52.432;16.914;2023-03-19T00:11:22;100430.66;;;8.82;63.90
31911;BME280;18457;52.432;16.914;2023-03-19T00:13:53;100432.31;;;8.81;64.86
31911;BME280;18457;52.432;16.914;2023-03-19T00:16:25;100431.83;;;8.77;66.11
31911;BME280;18457;52.432;16.914;2023-03-19T00:18:58;100435.52;;;8.71;65.29
31911;BME280;18457;52.432;16.914;2023-03-19T00:21:30;100433.71;;;8.73;64.44
31911;BME280;18457;52.432;16.914;2023-03-19T00:24:03;100432.82;;;8.72;64.47
31911;BME280;18457;52.432;16.914;2023-03-19T00:26:35;100435.84;;;8.74;64.78
31911;BME280;18457;52.432;16.914;2023-03-19T00:29:07;100433.96;;;8.68;65.11
31911;BME280;18457;52.432;16.914;2023-03-19T00:31:42;100437.74;;;8.68;65.31
31911;BME280;18457;52.432;16.914;2023-03-19T00:34:15;100433.83;;;8.66;65.20
31911;BME280;18457;52.432;16.914;2023-03-19T00:36:48;100434.90;;;8.65;64.12
31911;BME280;18457;52.432;16.914;2023-03-19T00:39:20;100431.08;;;8.68;63.04
31911;BME280;18457;52.432;16.914;2023-03-19T00:41:52;100432.52;;;8.69;63.25
31911;BME280;18457;52.432;16.914;2023-03-19T00:44:24;100435.66;;;8.64;65.16
31911;BME280;18457;52.432;16.914;2023-03-19T00:46:56;100434.42;;;8.61;65.57
31911;BME280;18457;52.432;16.914;2023-03-19T00:49:28;100428.80;;;8.53;66.10
31911;BME280;18457;52.432;16.914;2023-03-19T00:51:59;100427.05;;;8.50;66.74
31911;BME280;18457;52.432;16.914;2023-03-19T00:54:31;100424.56;;;8.48;66.26
31911;BME280;18457;52.432;16.914;2023-03-19T00:57:04;100426.20;;;8.46;65.76
31911;BME280;18457;52.432;16.914;2023-03-19T00:59:36;100423.03;;;8.41;66.48
31911;BME280;18457;52.432;16.914;2023-03-19T01:02:08;100420.33;;;8.29;66.85
31911;BME280;18457;52.432;16.914;2023-03-19T01:04:40;100423.98;;;8.26;66.84
31911;BME280;18457;52.432;16.914;2023-03-19T01:07:13;100426.86;;;8.23;66.80
31911;BME280;18457;52.432;16.914;2023-03-19T01:09:45;100427.23;;;8.25;67.20
31911;BME280;18457;52.432;16.914;2023-03-19T01:12:18;100427.30;;;8.34;66.67
31911;BME280;18457;52.432;16.914;2023-03-19T01:14:50;100422.90;;;8.39;66.88
31911;BME280;18457;52.432;16.914;2023-03-19T01:17:22;100425.73;;;8.42;67.30
31911;BME280;18457;52.432;16.914;2023-03-19T01:19:55;100424.75;;;8.35;67.96
31911;BME280;18457;52.432;16.914;2023-03-19T01:22:27;100426.33;;;8.24;67.75
31911;BME280;18457;52.432;16.914;2023-03-19T01:25:02;100424.65;;;8.15;68.28
31911;BME280;18457;52.432;16.914;2023-03-19T01:27:34;100421.35;;;8.19;68.52
31911;BME280;18457;52.432;16.914;2023-03-19T01:30:06;100422.32;;;8.15;68.91
31911;BME280;18457;52.432;16.914;2023-03-19T01:33:08;100418.37;;;8.14;68.11
31911;BME280;18457;52.432;16.914;2023-03-19T01:35:49;100413.48;;;8.16;67.55
31911;BME280;18457;52.432;16.914;2023-03-19T01:38:23;100409.05;;;8.12;68.28
31911;BME280;18457;52.432;16.914;2023-03-19T01:40:57;100407.12;;;8.20;68.44
31911;BME280;18457;52.432;16.914;2023-03-19T01:43:27;100407.06;;;8.25;67.45
31911;BME280;18457;52.432;16.914;2023-03-19T01:46:15;100408.70;;;8.25;67.47
31911;BME280;18457;52.432;16.914;2023-03-19T01:49:13;100407.05;;;8.13;69.19
31911;BME280;18457;52.432;16.914;2023-03-19T01:51:50;100407.23;;;8.12;69.09
31911;BME280;18457;52.432;16.914;2023-03-19T01:54:36;100408.48;;;8.01;68.88
31911;BME280;18457;52.432;16.914;2023-03-19T01:57:28;100396.08;;;7.86;68.81
31911;BME280;18457;52.432;16.914;2023-03-19T02:00:26;100418.16;;;7.88;69.15
31911;BME280;18457;52.432;16.914;2023-03-19T02:03:00;100416.33;;;7.77;70.24
31911;BME280;18457;52.432;16.914;2023-03-19T02:05:44;100413.26;;;7.79;71.05
31911;BME280;18457;52.432;16.914;2023-03-19T02:08:18;100407.94;;;7.87;71.00
31911;BME280;18457;52.432;16.914;2023-03-19T02:10:54;100409.85;;;7.78;70.85
31911;BME280;18457;52.432;16.914;2023-03-19T02:13:30;100401.33;;;7.70;71.46
31911;BME280;18457;52.432;16.914;2023-03-19T02:16:02;100405.08;;;7.71;71.73
31911;BME280;18457;52.432;16.914;2023-03-19T02:18:34;100406.43;;;7.78;71.87
31911;BME280;18457;52.432;16.914;2023-03-19T02:21:09;100404.58;;;7.84;71.14
31911;BME280;18457;52.432;16.914;2023-03-19T02:23:46;100410.23;;;7.75;71.06
31911;BME280;18457;52.432;16.914;2023-03-19T02:26:24;100416.04;;;7.72;71.19
31911;BME280;18457;52.432;16.914;2023-03-19T02:29:02;100412.52;;;7.80;70.20
31911;BME280;18457;52.432;16.914;2023-03-19T02:31:36;100409.02;;;7.86;70.50
31911;BME280;18457;52.432;16.914;2023-03-19T02:34:35;100405.52;;;7.92;69.59
31911;BME280;18457;52.432;16.914;2023-03-19T02:37:13;100404.56;;;7.97;68.84
31911;BME280;18457;52.432;16.914;2023-03-19T02:39:56;100412.52;;;7.95;69.29
31911;BME280;18457;52.432;16.914;2023-03-19T02:42:30;100414.33;;;7.93;69.68
31911;BME280;18457;52.432;16.914;2023-03-19T02:45:02;100413.17;;;7.99;69.05
31911;BME280;18457;52.432;16.914;2023-03-19T02:47:35;100413.52;;;8.00;69.27
31911;BME280;18457;52.432;16.914;2023-03-19T02:50:09;100417.99;;;8.02;68.39
31911;BME280;18457;52.432;16.914;2023-03-19T02:52:41;100418.88;;;8.04;68.41
31911;BME280;18457;52.432;16.914;2023-03-19T02:55:13;100416.69;;;8.05;68.03
31911;BME280;18457;52.432;16.914;2023-03-19T02:57:48;100422.08;;;8.07;66.95
31911;BME280;18457;52.432;16.914;2023-03-19T03:00:20;100430.67;;;8.08;66.61
31911;BME280;18457;52.432;16.914;2023-03-19T03:02:53;100432.46;;;8.09;66.20
31911;BME280;18457;52.432;16.914;2023-03-19T03:05:26;100438.82;;;8.05;67.21
31911;BME280;18457;52.432;16.914;2023-03-19T03:07:58;100439.90;;;8.05;67.21
31911;BME280;18457;52.432;16.914;2023-03-19T03:10:30;100441.18;;;8.04;66.92
31911;BME280;18457;52.432;16.914;2023-03-19T03:13:03;100437.39;;;8.04;66.67
31911;BME280;18457;52.432;16.914;2023-03-19T03:15:35;100442.43;;;8.04;66.63
31911;BME280;18457;52.432;16.914;2023-03-19T03:18:07;100439.20;;;8.05;66.30
31911;BME280;18457;52.432;16.914;2023-03-19T03:20:39;100439.52;;;8.05;66.29
31911;BME280;18457;52.432;16.914;2023-03-19T03:23:11;100440.67;;;8.01;67.18
31911;BME280;18457;52.432;16.914;2023-03-19T03:25:43;100442.52;;;7.98;68.40
31911;BME280;18457;52.432;16.914;2023-03-19T03:28:15;100444.30;;;8.00;67.78
31911;BME280;18457;52.432;16.914;2023-03-19T03:30:48;100450.02;;;8.01;66.60
31911;BME280;18457;52.432;16.914;2023-03-19T03:33:19;100455.18;;;8.06;66.08
31911;BME280;18457;52.432;16.914;2023-03-19T03:35:52;100457.83;;;8.10;65.31
31911;BME280;18457;52.432;16.914;2023-03-19T03:38:24;100459.44;;;8.11;65.33
31911;BME280;18457;52.432;16.914;2023-03-19T03:40:56;100460.50;;;8.12;65.41
31911;BME280;18457;52.432;16.914;2023-03-19T03:43:29;100461.02;;;8.13;65.31
31911;BME280;18457;52.432;16.914;2023-03-19T03:46:01;100460.10;;;8.14;65.23
31911;BME280;18457;52.432;16.914;2023-03-19T03:48:33;100458.49;;;8.13;65.29
31911;BME280;18457;52.432;16.914;2023-03-19T03:51:05;100453.48;;;8.12;65.70
31911;BME280;18457;52.432;16.914;2023-03-19T03:53:37;100456.23;;;8.08;66.61
31911;BME280;18457;52.432;16.914;2023-03-19T03:56:10;100453.96;;;8.04;66.78
31911;BME280;18457;52.432;16.914;2023-03-19T03:58:42;100451.98;;;7.88;67.92
31911;BME280;18457;52.432;16.914;2023-03-19T04:01:16;100445.92;;;7.70;68.88
31911;BME280;18457;52.432;16.914;2023-03-19T04:03:49;100453.34;;;7.66;70.31
31911;BME280;18457;52.432;16.914;2023-03-19T04:06:22;100452.27;;;7.65;70.46
31911;BME280;18457;52.432;16.914;2023-03-19T04:09:07;100455.76;;;7.59;70.77
31911;BME280;18457;52.432;16.914;2023-03-19T04:11:41;100440.36;;;7.54;71.88
31911;BME280;18457;52.432;16.914;2023-03-19T04:14:13;100442.52;;;7.54;71.87
31911;BME280;18457;52.432;16.914;2023-03-19T04:16:45;100442.89;;;7.52;72.50
31911;BME280;18457;52.432;16.914;2023-03-19T04:19:16;100445.30;;;7.45;72.76
31911;BME280;18457;52.432;16.914;2023-03-19T04:21:48;100443.88;;;7.44;72.75
31911;BME280;18457;52.432;16.914;2023-03-19T04:24:20;100447.61;;;7.47;72.44
31911;BME280;18457;52.432;16.914;2023-03-19T04:26:52;100446.58;;;7.44;72.28
31911;BME280;18457;52.432;16.914;2023-03-19T04:29:25;100448.93;;;7.43;71.94
31911;BME280;18457;52.432;16.914;2023-03-19T04:31:57;100444.63;;;7.41;72.15
31911;BME280;18457;52.432;16.914;2023-03-19T04:34:29;100445.07;;;7.33;72.55
31911;BME280;18457;52.432;16.914;2023-03-19T04:37:01;100449.27;;;7.26;72.36
31911;BME280;18457;52.432;16.914;2023-03-19T04:39:33;100453.75;;;7.27;72.45
31911;BME280;18457;52.432;16.914;2023-03-19T04:42:05;100455.02;;;7.25;72.00
31911;BME280;18457;52.432;16.914;2023-03-19T04:44:42;100451.03;;;7.11;72.91
31911;BME280;18457;52.432;16.914;2023-03-19T04:47:14;100450.40;;;7.02;73.71
31911;BME280;18457;52.432;16.914;2023-03-19T04:49:58;100451.30;;;7.03;74.28
31911;BME280;18457;52.432;16.914;2023-03-19T04:52:32;100451.44;;;7.06;73.82
31911;BME280;18457;52.432;16.914;2023-03-19T04:55:05;100450.72;;;7.06;73.10
31911;BME280;18457;52.432;16.914;2023-03-19T04:57:48;100446.45;;;7.03;73.45
31911;BME280;18457;52.432;16.914;2023-03-19T05:00:23;100445.59;;;6.98;73.71
31911;BME280;18457;52.432;16.914;2023-03-19T05:02:56;100443.17;;;7.06;72.61
31911;BME280;18457;52.432;16.914;2023-03-19T05:05:28;100444.41;;;7.10;72.42
31911;BME280;18457;52.432;16.914;2023-03-19T05:08:01;100445.30;;;7.09;71.77
31911;BME280;18457;52.432;16.914;2023-03-19T05:10:33;100444.59;;;7.10;72.15
31911;BME280;18457;52.432;16.914;2023-03-19T05:13:07;100442.17;;;7.18;71.70
31911;BME280;18457;52.432;16.914;2023-03-19T05:15:43;100443.55;;;7.23;71.33
31911;BME280;18457;52.432;16.914;2023-03-19T05:18:16;100446.21;;;7.26;72.25
31911;BME280;18457;52.432;16.914;2023-03-19T05:20:48;100445.66;;;7.28;71.26
31911;BME280;18457;52.432;16.914;2023-03-19T05:23:23;100438.83;;;7.29;70.79
31911;BME280;18457;52.432;16.914;2023-03-19T05:26:03;100439.05;;;7.23;72.16
31911;BME280;18457;52.432;16.914;2023-03-19T05:28:56;100438.98;;;7.12;73.18
31911;BME280;18457;52.432;16.914;2023-03-19T05:31:35;100439.80;;;7.02;73.44
31911;BME280;18457;52.432;16.914;2023-03-19T05:34:10;100439.88;;;6.94;73.50
31911;BME280;18457;52.432;16.914;2023-03-19T05:36:42;100438.63;;;6.93;74.05
31911;BME280;18457;52.432;16.914;2023-03-19T05:39:18;100443.10;;;6.94;74.37
31911;BME280;18457;52.432;16.914;2023-03-19T05:41:51;100447.88;;;7.03;73.94
31911;BME280;18457;52.432;16.914;2023-03-19T05:44:26;100454.52;;;7.03;74.04
31911;BME280;18457;52.432;16.914;2023-03-19T05:47:05;100456.09;;;7.10;73.77
31911;BME280;18457;52.432;16.914;2023-03-19T05:49:39;100457.80;;;7.18;73.07
31911;BME280;18457;52.432;16.914;2023-03-19T05:52:11;100460.83;;;7.21;72.50
31911;BME280;18457;52.432;16.914;2023-03-19T05:54:43;100464.55;;;7.26;72.23
31911;BME280;18457;52.432;16.914;2023-03-19T05:57:33;100474.38;;;7.30;71.39
31911;BME280;18457;52.432;16.914;2023-03-19T06:00:24;100477.77;;;7.34;70.79
31911;BME280;18457;52.432;16.914;2023-03-19T06:02:55;100479.89;;;7.37;71.35
31911;BME280;18457;52.432;16.914;2023-03-19T06:05:38;100477.70;;;7.40;70.72
31911;BME280;18457;52.432;16.914;2023-03-19T06:08:33;100482.52;;;7.43;70.20
31911;BME280;18457;52.432;16.914;2023-03-19T06:11:24;100486.95;;;7.49;69.31
31911;BME280;18457;52.432;16.914;2023-03-19T06:14:17;100489.61;;;7.54;69.06
31911;BME280;18457;52.432;16.914;2023-03-19T06:16:58;100494.77;;;7.59;68.54
31911;BME280;18457;52.432;16.914;2023-03-19T06:19:30;100500.81;;;7.65;68.23
31911;BME280;18457;52.432;16.914;2023-03-19T06:22:02;100503.64;;;7.70;67.96
31911;BME280;18457;52.432;16.914;2023-03-19T06:24:35;100505.55;;;7.74;67.68
31911;BME280;18457;52.432;16.914;2023-03-19T06:27:07;100510.52;;;7.80;67.67
31911;BME280;18457;52.432;16.914;2023-03-19T06:29:39;100508.15;;;7.83;67.39
31911;BME280;18457;52.432;16.914;2023-03-19T06:32:24;100512.61;;;7.87;67.03
31911;BME280;18457;52.432;16.914;2023-03-19T06:34:58;100516.02;;;7.88;67.16
31911;BME280;18457;52.432;16.914;2023-03-19T06:37:30;100503.28;;;7.86;67.43
31911;BME280;18457;52.432;16.914;2023-03-19T06:40:02;100502.98;;;7.95;67.03
31911;BME280;18457;52.432;16.914;2023-03-19T06:42:35;100505.09;;;7.99;67.38
31911;BME280;18457;52.432;16.914;2023-03-19T06:45:08;100505.05;;;8.02;66.85
31911;BME280;18457;52.432;16.914;2023-03-19T06:47:42;100497.10;;;8.05;66.86
31911;BME280;18457;52.432;16.914;2023-03-19T06:50:15;100505.86;;;8.11;67.00
31911;BME280;18457;52.432;16.914;2023-03-19T06:52:47;100505.80;;;8.14;66.90
31911;BME280;18457;52.432;16.914;2023-03-19T06:55:19;100506.83;;;8.19;66.29
31911;BME280;18457;52.432;16.914;2023-03-19T06:57:51;100513.98;;;8.23;65.89
31911;BME280;18457;52.432;16.914;2023-03-19T07:00:23;100514.11;;;8.28;65.89
31911;BME280;18457;52.432;16.914;2023-03-19T07:02:56;100517.69;;;8.30;65.89
31911;BME280;18457;52.432;16.914;2023-03-19T07:05:27;100521.21;;;8.35;65.73
31911;BME280;18457;52.432;16.914;2023-03-19T07:07:59;100522.23;;;8.41;65.38
31911;BME280;18457;52.432;16.914;2023-03-19T07:10:32;100521.64;;;8.45;65.15
31911;BME280;18457;52.432;16.914;2023-03-19T07:13:04;100526.64;;;8.48;65.24
31911;BME280;18457;52.432;16.914;2023-03-19T07:15:37;100526.23;;;8.51;65.65
31911;BME280;18457;52.432;16.914;2023-03-19T07:18:09;100525.65;;;8.54;65.54
31911;BME280;18457;52.432;16.914;2023-03-19T07:20:42;100527.73;;;8.59;65.67
31911;BME280;18457;52.432;16.914;2023-03-19T07:23:14;100531.27;;;8.64;65.42
31911;BME280;18457;52.432;16.914;2023-03-19T07:25:46;100529.74;;;8.70;65.45
31911;BME280;18457;52.432;16.914;2023-03-19T07:28:19;100531.27;;;8.76;64.81
31911;BME280;18457;52.432;16.914;2023-03-19T07:30:52;100529.55;;;8.83;65.00
31911;BME280;18457;52.432;16.914;2023-03-19T07:33:24;100529.30;;;8.88;64.59
31911;BME280;18457;52.432;16.914;2023-03-19T07:35:57;100529.91;;;8.94;64.28
31911;BME280;18457;52.432;16.914;2023-03-19T07:38:29;100530.41;;;8.98;64.21
31911;BME280;18457;52.432;16.914;2023-03-19T07:41:01;100529.77;;;9.03;64.42
31911;BME280;18457;52.432;16.914;2023-03-19T07:43:34;100533.27;;;9.10;64.18
31911;BME280;18457;52.432;16.914;2023-03-19T07:46:07;100535.01;;;9.14;64.22
31911;BME280;18457;52.432;16.914;2023-03-19T07:48:39;100532.27;;;9.16;64.40
31911;BME280;18457;52.432;16.914;2023-03-19T07:51:11;100528.40;;;9.21;64.56
31911;BME280;18457;52.432;16.914;2023-03-19T07:53:43;100534.45;;;9.25;64.47
31911;BME280;18457;52.432;16.914;2023-03-19T07:56:15;100536.73;;;9.29;63.97
31911;BME280;18457;52.432;16.914;2023-03-19T07:58:47;100531.80;;;9.32;63.68
31911;BME280;18457;52.432;16.914;2023-03-19T08:01:20;100525.20;;;9.39;63.68
31911;BME280;18457;52.432;16.914;2023-03-19T08:03:52;100517.93;;;9.42;63.77
31911;BME280;18457;52.432;16.914;2023-03-19T08:06:24;100518.21;;;9.47;63.74
31911;BME280;18457;52.432;16.914;2023-03-19T08:08:57;100509.77;;;9.55;64.04
31911;BME280;18457;52.432;16.914;2023-03-19T08:11:30;100510.86;;;9.64;63.65
31911;BME280;18457;52.432;16.914;2023-03-19T08:14:02;100505.46;;;9.63;64.07
31911;BME280;18457;52.432;16.914;2023-03-19T08:16:34;100506.42;;;9.70;63.77
31911;BME280;18457;52.432;16.914;2023-03-19T08:19:06;100506.43;;;9.79;62.74
31911;BME280;18457;52.432;16.914;2023-03-19T08:21:39;100512.55;;;9.89;62.34
31911;BME280;18457;52.432;16.914;2023-03-19T08:24:14;100510.68;;;10.01;61.78
31911;BME280;18457;52.432;16.914;2023-03-19T08:26:46;100515.06;;;10.08;61.52
31911;BME280;18457;52.432;16.914;2023-03-19T08:29:18;100515.57;;;10.11;61.56
31911;BME280;18457;52.432;16.914;2023-03-19T08:31:50;100519.29;;;10.15;60.97
31911;BME280;18457;52.432;16.914;2023-03-19T08:34:24;100518.52;;;10.17;61.45
31911;BME280;18457;52.432;16.914;2023-03-19T08:36:56;100515.49;;;10.24;61.19
31911;BME280;18457;52.432;16.914;2023-03-19T08:39:30;100513.95;;;10.36;60.98
31911;BME280;18457;52.432;16.914;2023-03-19T08:42:03;100514.30;;;10.46;60.83
31911;BME280;18457;52.432;16.914;2023-03-19T08:44:35;100517.36;;;10.54;61.08
31911;BME280;18457;52.432;16.914;2023-03-19T08:47:07;100520.40;;;10.64;60.48
31911;BME280;18457;52.432;16.914;2023-03-19T08:49:39;100521.43;;;10.74;60.16
31911;BME280;18457;52.432;16.914;2023-03-19T08:52:12;100526.85;;;10.82;60.02
31911;BME280;18457;52.432;16.914;2023-03-19T08:54:44;100530.39;;;10.93;59.31
31911;BME280;18457;52.432;16.914;2023-03-19T08:57:16;100529.75;;;10.96;58.98
31911;BME280;18457;52.432;16.914;2023-03-19T08:59:48;100526.23;;;10.93;59.09
31911;BME280;18457;52.432;16.914;2023-03-19T09:02:20;100524.36;;;10.95;59.50
31911;BME280;18457;52.432;16.914;2023-03-19T09:04:53;100528.21;;;11.07;59.34
31911;BME280;18457;52.432;16.914;2023-03-19T09:07:25;100531.89;;;11.20;58.72
31911;BME280;18457;52.432;16.914;2023-03-19T09:09:57;100526.34;;;11.25;58.51
31911;BME280;18457;52.432;16.914;2023-03-19T09:12:29;100528.52;;;11.25;58.32
31911;BME280;18457;52.432;16.914;2023-03-19T09:15:09;100531.63;;;11.31;58.80
31911;BME280;18457;52.432;16.914;2023-03-19T09:17:41;100529.84;;;11.44;58.63
31911;BME280;18457;52.432;16.914;2023-03-19T09:22:45;100526.65;;;11.56;57.56
31911;BME280;18457;52.432;16.914;2023-03-19T09:25:18;100524.19;;;11.60;57.18
31911;BME280;18457;52.432;16.914;2023-03-19T09:27:49;100524.40;;;11.66;56.69
31911;BME280;18457;52.432;16.914;2023-03-19T09:30:21;100531.77;;;11.75;56.24
31911;BME280;18457;52.432;16.914;2023-03-19T09:32:53;100529.77;;;11.82;55.43
31911;BME280;18457;52.432;16.914;2023-03-19T09:35:25;100530.95;;;11.92;54.79
31911;BME280;18457;52.432;16.914;2023-03-19T09:38:01;100526.11;;;12.03;54.64
31911;BME280;18457;52.432;16.914;2023-03-19T09:40:36;100530.23;;;12.11;54.29
31911;BME280;18457;52.432;16.914;2023-03-19T09:43:23;100533.14;;;12.23;54.08
31911;BME280;18457;52.432;16.914;2023-03-19T09:46:00;100534.73;;;12.37;53.59
31911;BME280;18457;52.432;16.914;2023-03-19T09:48:38;100534.75;;;12.42;51.19
31911;BME280;18457;52.432;16.914;2023-03-19T09:51:17;100531.01;;;12.52;50.50
31911;BME280;18457;52.432;16.914;2023-03-19T09:53:54;100526.45;;;12.59;50.33
31911;BME280;18457;52.432;16.914;2023-03-19T09:56:27;100526.92;;;12.67;50.09
31911;BME280;18457;52.432;16.914;2023-03-19T09:58:59;100528.70;;;12.68;49.64
31911;BME280;18457;52.432;16.914;2023-03-19T10:01:35;100527.53;;;12.71;49.89
31911;BME280;18457;52.432;16.914;2023-03-19T10:04:23;100529.59;;;12.75;49.68
31911;BME280;18457;52.432;16.914;2023-03-19T10:07:06;100528.95;;;12.78;49.56
31911;BME280;18457;52.432;16.914;2023-03-19T10:09:51;100525.25;;;12.86;49.47
31911;BME280;18457;52.432;16.914;2023-03-19T10:12:38;100523.24;;;12.92;49.42
31911;BME280;18457;52.432;16.914;2023-03-19T10:15:20;100528.61;;;12.99;49.83
31911;BME280;18457;52.432;16.914;2023-03-19T10:17:58;100528.89;;;13.03;49.31
31911;BME280;18457;52.432;16.914;2023-03-19T10:20:45;100530.96;;;13.06;48.76
31911;BME280;18457;52.432;16.914;2023-03-19T10:23:31;100526.36;;;13.14;48.68
31911;BME280;18457;52.432;16.914;2023-03-19T10:26:08;100524.65;;;13.22;48.67
31911;BME280;18457;52.432;16.914;2023-03-19T10:28:43;100524.03;;;13.24;48.25
31911;BME280;18457;52.432;16.914;2023-03-19T10:31:27;100525.62;;;13.26;48.22
31911;BME280;18457;52.432;16.914;2023-03-19T10:34:09;100524.39;;;13.30;48.45
31911;BME280;18457;52.432;16.914;2023-03-19T10:36:44;100530.24;;;13.34;48.36
31911;BME280;18457;52.432;16.914;2023-03-19T10:39:17;100533.11;;;13.35;47.69
31911;BME280;18457;52.432;16.914;2023-03-19T10:41:56;100532.52;;;13.37;47.49
31911;BME280;18457;52.432;16.914;2023-03-19T10:44:33;100533.10;;;13.41;47.61
31911;BME280;18457;52.432;16.914;2023-03-19T10:47:13;100530.04;;;13.45;47.57
31911;BME280;18457;52.432;16.914;2023-03-19T10:49:45;100525.21;;;13.48;46.81
31911;BME280;18457;52.432;16.914;2023-03-19T10:52:21;100526.39;;;13.51;46.96
31911;BME280;18457;52.432;16.914;2023-03-19T10:55:01;100525.10;;;13.51;46.59
31911;BME280;18457;52.432;16.914;2023-03-19T10:57:35;100524.30;;;13.54;46.63
31911;BME280;18457;52.432;16.914;2023-03-19T11:00:13;100524.83;;;13.60;46.75
31911;BME280;18457;52.432;16.914;2023-03-19T11:02:51;100520.09;;;13.65;46.82
31911;BME280;18457;52.432;16.914;2023-03-19T11:05:30;100520.73;;;13.73;47.51
31911;BME280;18457;52.432;16.914;2023-03-19T11:08:06;100522.52;;;13.78;47.32
31911;BME280;18457;52.432;16.914;2023-03-19T11:11:04;100515.00;;;13.86;46.99
31911;BME280;18457;52.432;16.914;2023-03-19T11:13:37;100509.16;;;13.91;47.47
31911;BME280;18457;52.432;16.914;2023-03-19T11:16:08;100507.16;;;13.96;47.39
31911;BME280;18457;52.432;16.914;2023-03-19T11:18:41;100499.62;;;13.94;47.48
31911;BME280;18457;52.432;16.914;2023-03-19T11:21:24;100506.55;;;13.98;47.42
31911;BME280;18457;52.432;16.914;2023-03-19T11:24:02;100505.62;;;14.04;46.87
31911;BME280;18457;52.432;16.914;2023-03-19T11:26:35;100497.68;;;14.07;47.09
31911;BME280;18457;52.432;16.914;2023-03-19T11:29:09;100498.27;;;14.12;47.41
31911;BME280;18457;52.432;16.914;2023-03-19T11:31:47;100496.23;;;14.12;46.88
31911;BME280;18457;52.432;16.914;2023-03-19T11:34:32;100491.70;;;14.17;47.41
31911;BME280;18457;52.432;16.914;2023-03-19T11:37:10;100488.70;;;14.19;48.41
31911;BME280;18457;52.432;16.914;2023-03-19T11:39:51;100493.17;;;14.16;47.91
31911;BME280;18457;52.432;16.914;2023-03-19T11:43:03;100490.99;;;14.11;47.06
31911;BME280;18457;52.432;16.914;2023-03-19T11:45:42;100489.02;;;14.11;47.29
31911;BME280;18457;52.432;16.914;2023-03-19T11:48:27;100488.99;;;14.12;47.83
31911;BME280;18457;52.432;16.914;2023-03-19T11:51:07;100487.73;;;14.16;47.67
31911;BME280;18457;52.432;16.914;2023-03-19T11:53:52;100488.58;;;14.17;46.91
31911;BME280;18457;52.432;16.914;2023-03-19T11:56:34;100486.27;;;14.21;47.44
31911;BME280;18457;52.432;16.914;2023-03-19T11:59:20;100485.14;;;14.27;47.90
31911;BME280;18457;52.432;16.914;2023-03-19T12:05:25;100489.00;;;14.31;46.37
31911;BME280;18457;52.432;16.914;2023-03-19T12:08:18;100490.45;;;14.32;46.20
31911;BME280;18457;52.432;16.914;2023-03-19T12:11:02;100488.24;;;14.37;46.57
31911;BME280;18457;52.432;16.914;2023-03-19T12:13:49;100486.58;;;14.42;46.06
31911;BME280;18457;52.432;16.914;2023-03-19T12:16:34;100491.52;;;14.46;46.72
31911;BME280;18457;52.432;16.914;2023-03-19T12:19:29;100488.36;;;14.48;46.65
31911;BME280;18457;52.432;16.914;2023-03-19T12:22:15;100488.64;;;14.45;46.39
31911;BME280;18457;52.432;16.914;2023-03-19T12:25:03;100492.77;;;14.51;46.68
31911;BME280;18457;52.432;16.914;2023-03-19T12:27:42;100490.27;;;14.54;46.76
31911;BME280;18457;52.432;16.914;2023-03-19T12:30:33;100484.69;;;14.58;46.76
31911;BME280;18457;52.432;16.914;2023-03-19T12:33:18;100485.61;;;14.62;46.50
31911;BME280;18457;52.432;16.914;2023-03-19T12:35:54;100485.92;;;14.63;46.69
31911;BME280;18457;52.432;16.914;2023-03-19T12:38:29;100480.94;;;14.65;46.69
31911;BME280;18457;52.432;16.914;2023-03-19T12:41:08;100481.48;;;14.70;46.60
31911;BME280;18457;52.432;16.914;2023-03-19T12:43:47;100486.45;;;14.77;46.78
31911;BME280;18457;52.432;16.914;2023-03-19T12:46:26;100485.89;;;14.82;47.16
31911;BME280;18457;52.432;16.914;2023-03-19T12:49:04;100482.24;;;14.83;46.71
31911;BME280;18457;52.432;16.914;2023-03-19T12:51:41;100480.58;;;14.88;46.86
31911;BME280;18457;52.432;16.914;2023-03-19T12:54:18;100477.73;;;14.91;47.10
31911;BME280;18457;52.432;16.914;2023-03-19T12:56:56;100473.11;;;14.88;47.11
31911;BME280;18457;52.432;16.914;2023-03-19T12:59:34;100475.20;;;14.91;47.69
31911;BME280;18457;52.432;16.914;2023-03-19T13:02:15;100468.34;;;14.94;48.38
31911;BME280;18457;52.432;16.914;2023-03-19T13:04:52;100473.20;;;14.99;48.25
31911;BME280;18457;52.432;16.914;2023-03-19T13:07:32;100469.98;;;15.03;48.49
31911;BME280;18457;52.432;16.914;2023-03-19T13:10:10;100464.03;;;15.01;48.27
31911;BME280;18457;52.432;16.914;2023-03-19T13:12:44;100462.22;;;14.96;47.73
31911;BME280;18457;52.432;16.914;2023-03-19T13:15:23;100458.52;;;14.98;47.67
31911;BME280;18457;52.432;16.914;2023-03-19T13:18:04;100455.52;;;15.04;47.69
31911;BME280;18457;52.432;16.914;2023-03-19T13:20:54;100455.64;;;15.10;48.29
31911;BME280;18457;52.432;16.914;2023-03-19T13:23:32;100450.86;;;15.16;48.71
31911;BME280;18457;52.432;16.914;2023-03-19T13:26:08;100447.95;;;15.15;48.17
31911;BME280;18457;52.432;16.914;2023-03-19T13:28:58;100443.14;;;15.17;48.59
31911;BME280;18457;52.432;16.914;2023-03-19T13:31:34;100442.31;;;15.20;48.61
31911;BME280;18457;52.432;16.914;2023-03-19T13:34:19;100437.15;;;15.21;48.53
31911;BME280;18457;52.432;16.914;2023-03-19T13:36:59;100436.93;;;15.22;48.10